createdAt,value
2018-04-27T00:01:31.609Z,8.13
2018-04-27T00:03:59.360Z,13.93
2018-04-27T00:06:27.124Z,9.70
2018-04-27T00:08:54.868Z,8.23
2018-04-27T00:11:22.651Z,8.50
2018-04-27T00:13:50.446Z,6.70
2018-04-27T00:16:18.205Z,8.77
2018-04-27T00:18:45.975Z,7.07
2018-04-27T00:21:13.708Z,6.87
2018-04-27T00:23:41.477Z,9.80
2018-04-27T00:26:09.227Z,8.60
2018-04-27T00:28:37.030Z,8.00
2018-04-27T00:31:04.787Z,9.77
2018-04-27T00:33:32.589Z,7.03
2018-04-27T00:36:00.366Z,8.90
2018-04-27T00:38:28.131Z,10.30
2018-04-27T00:40:55.907Z,6.93
2018-04-27T00:43:23.648Z,8.27
2018-04-27T00:45:51.425Z,11.73
2018-04-27T00:48:19.171Z,10.23
2018-04-27T00:50:46.926Z,9.50
2018-04-27T00:53:14.743Z,9.90
2018-04-27T00:55:42.521Z,9.13
2018-04-27T00:58:10.259Z,7.63
2018-04-27T01:00:38.234Z,7.73
2018-04-27T01:03:05.979Z,8.80
2018-04-27T01:05:33.748Z,9.77
2018-04-27T01:08:01.534Z,8.07
2018-04-27T01:10:29.301Z,10.50
2018-04-27T01:12:57.047Z,9.47
2018-04-27T01:15:24.839Z,11.20
2018-04-27T01:17:52.583Z,8.53
2018-04-27T01:20:20.325Z,9.70
2018-04-27T01:22:48.108Z,9.27
2018-04-27T01:25:15.901Z,7.33
2018-04-27T01:27:43.677Z,8.33
2018-04-27T01:30:11.455Z,11.80
2018-04-27T01:32:39.199Z,8.83
2018-04-27T01:35:06.978Z,7.93
2018-04-27T01:37:34.715Z,10.27
2018-04-27T01:40:02.499Z,11.70
2018-04-27T01:42:30.239Z,7.87
2018-04-27T01:44:58.015Z,8.30
2018-04-27T01:47:25.753Z,9.43
2018-04-27T01:49:53.515Z,7.63
2018-04-27T01:52:21.242Z,8.43
2018-04-27T01:54:48.999Z,9.90
2018-04-27T01:57:16.770Z,6.70
2018-04-27T01:59:44.507Z,9.37
2018-04-27T02:02:12.260Z,8.30
2018-04-27T02:04:40.005Z,9.03
2018-04-27T02:07:07.764Z,7.43
2018-04-27T02:09:35.558Z,6.10
2018-04-27T02:12:03.298Z,7.53
2018-04-27T02:14:31.066Z,6.57
2018-04-27T02:16:58.810Z,12.83
2018-04-27T02:19:26.586Z,7.50
2018-04-27T02:21:54.326Z,7.93
2018-04-27T02:24:22.092Z,9.50
2018-04-27T02:26:49.845Z,8.23
2018-04-27T02:29:17.636Z,8.03
2018-04-27T02:31:45.377Z,6.90
2018-04-27T02:34:13.142Z,6.73
2018-04-27T02:36:40.869Z,8.17
2018-04-27T02:39:08.654Z,6.97
2018-04-27T02:41:36.427Z,7.07
2018-04-27T02:44:04.169Z,6.40
2018-04-27T02:46:31.934Z,7.40
2018-04-27T02:48:59.667Z,8.00
2018-04-27T02:51:27.453Z,9.70
2018-04-27T02:53:55.187Z,7.33
2018-04-27T02:56:22.954Z,8.00
2018-04-27T02:58:50.678Z,7.90
2018-04-27T03:01:18.418Z,7.80
2018-04-27T03:03:46.215Z,7.63
2018-04-27T03:06:13.957Z,6.90
2018-04-27T03:08:41.718Z,11.17
2018-04-27T03:11:09.446Z,8.23
2018-04-27T03:13:37.209Z,7.70
2018-04-27T03:16:04.961Z,10.40
2018-04-27T03:18:32.742Z,7.90
2018-04-27T03:21:00.530Z,11.37
2018-04-27T03:23:28.306Z,9.37
2018-04-27T03:25:56.035Z,9.30
2018-04-27T03:28:23.774Z,10.40
2018-04-27T03:30:51.531Z,9.60
2018-04-27T03:33:19.254Z,7.03
2018-04-27T03:35:47.015Z,7.77
2018-04-27T03:38:14.767Z,11.43
2018-04-27T03:40:42.526Z,9.33
2018-04-27T03:43:10.294Z,11.13
2018-04-27T03:45:38.202Z,10.07
2018-04-27T03:48:05.930Z,8.30
2018-04-27T03:50:33.674Z,9.37
2018-04-27T03:53:01.433Z,11.50
2018-04-27T03:55:29.166Z,13.27
2018-04-27T03:57:56.934Z,12.63
2018-04-27T04:00:30.794Z,9.83
2018-04-27T04:03:04.798Z,9.43
2018-04-27T04:05:32.556Z,11.00
2018-04-27T04:08:00.353Z,10.70
2018-04-27T04:10:28.078Z,19.20
2018-04-27T04:12:55.824Z,23.40
2018-04-27T04:15:23.605Z,14.33
2018-04-27T04:17:51.380Z,12.57
2018-04-27T04:20:19.107Z,10.47
2018-04-27T04:22:46.850Z,11.33
2018-04-27T04:25:21.599Z,12.70
2018-04-27T04:27:49.337Z,8.23
2018-04-27T04:30:17.105Z,14.17
2018-04-27T04:32:44.839Z,9.63
2018-04-27T04:35:12.573Z,10.63
2018-04-27T04:37:40.330Z,11.30
2018-04-27T04:40:08.071Z,9.40
2018-04-27T04:42:35.841Z,8.70
2018-04-27T04:45:03.684Z,8.70
2018-04-27T04:47:31.398Z,8.43
2018-04-27T04:49:59.142Z,9.23
2018-04-27T04:52:26.993Z,8.60
2018-04-27T04:54:54.650Z,7.30
2018-04-27T04:57:22.401Z,9.00
2018-04-27T04:59:50.139Z,11.87
2018-04-27T05:02:17.921Z,8.27
2018-04-27T05:04:45.699Z,9.10
2018-04-27T05:07:13.507Z,11.23
2018-04-27T05:09:41.286Z,7.70
2018-04-27T05:12:09.057Z,7.10
2018-04-27T05:14:36.791Z,11.17
2018-04-27T05:17:04.526Z,7.20
2018-04-27T05:19:32.283Z,8.50
2018-04-27T05:22:00.037Z,7.87
2018-04-27T05:24:27.798Z,9.20
2018-04-27T05:26:55.606Z,10.73
2018-04-27T05:29:23.330Z,8.47
2018-04-27T05:31:51.074Z,9.27
2018-04-27T05:34:18.860Z,13.07
2018-04-27T05:36:46.590Z,9.27
2018-04-27T05:39:14.354Z,12.67
2018-04-27T05:41:42.076Z,9.47
2018-04-27T05:44:09.830Z,8.70
2018-04-27T05:46:37.555Z,12.27
2018-04-27T05:49:05.390Z,11.57
2018-04-27T05:51:33.101Z,12.00
2018-04-27T05:54:00.887Z,10.07
2018-04-27T05:56:28.614Z,10.70
2018-04-27T05:58:56.351Z,9.90
2018-04-27T06:01:24.115Z,14.87
2018-04-27T06:03:57.991Z,14.30
2018-04-27T06:06:25.766Z,8.83
2018-04-27T06:08:53.502Z,11.07
2018-04-27T06:11:21.291Z,8.60
2018-04-27T06:13:49.027Z,9.83
2018-04-27T06:16:16.796Z,9.83
2018-04-27T06:18:44.600Z,10.33
2018-04-27T06:21:12.330Z,8.20
2018-04-27T06:23:40.103Z,12.10
2018-04-27T06:26:07.826Z,9.03
2018-04-27T06:28:50.573Z,8.87
2018-04-27T06:31:18.305Z,8.60
2018-04-27T06:33:46.070Z,10.53
2018-04-27T06:36:13.821Z,10.87
2018-04-27T06:38:41.607Z,10.20
2018-04-27T06:41:09.337Z,8.93
2018-04-27T06:43:37.085Z,10.27
2018-04-27T06:46:04.853Z,12.47
2018-04-27T06:48:32.594Z,9.93
2018-04-27T06:51:00.341Z,11.50
2018-04-27T06:53:28.119Z,7.73
2018-04-27T06:55:55.894Z,15.93
2018-04-27T06:58:23.631Z,10.83
2018-04-27T07:00:51.398Z,9.50
2018-04-27T07:03:19.146Z,11.10
2018-04-27T07:05:46.886Z,10.10
2018-04-27T07:08:14.649Z,8.37
2018-04-27T07:10:42.417Z,10.87
2018-04-27T07:13:10.167Z,10.63
2018-04-27T07:15:37.942Z,10.70
2018-04-27T07:18:05.710Z,8.37
2018-04-27T07:20:33.434Z,7.27
2018-04-27T07:23:01.191Z,7.43
2018-04-27T07:25:28.946Z,10.07
2018-04-27T07:27:56.725Z,9.27
2018-04-27T07:30:24.480Z,9.13
2018-04-27T07:32:52.224Z,9.77
2018-04-27T07:35:20.002Z,9.70
2018-04-27T07:37:47.727Z,11.50
2018-04-27T07:40:15.466Z,6.90
2018-04-27T07:42:43.219Z,12.10
2018-04-27T07:45:10.956Z,7.10
2018-04-27T07:47:38.726Z,7.33
2018-04-27T07:50:06.462Z,8.03
2018-04-27T07:52:34.234Z,11.23
2018-04-27T07:55:01.968Z,5.53
2018-04-27T07:57:29.703Z,7.20
2018-04-27T07:59:57.480Z,7.67
2018-04-27T08:02:25.293Z,6.00
2018-04-27T08:04:52.998Z,6.13
2018-04-27T08:07:20.785Z,10.40
2018-04-27T08:09:48.533Z,5.90
2018-04-27T08:12:16.266Z,9.50
2018-04-27T08:14:44.022Z,6.50
2018-04-27T08:17:11.746Z,5.53
2018-04-27T08:19:39.506Z,9.87
2018-04-27T08:22:07.263Z,5.90
2018-04-27T08:24:35.032Z,6.63
2018-04-27T08:27:02.798Z,7.67
2018-04-27T08:29:30.524Z,8.10
2018-04-27T08:31:58.261Z,5.50
2018-04-27T08:34:26.030Z,6.27
2018-04-27T08:36:53.807Z,7.27
2018-04-27T08:39:21.574Z,6.00
2018-04-27T08:41:49.336Z,7.07
2018-04-27T08:44:17.098Z,8.93
2018-04-27T08:46:44.822Z,8.17
2018-04-27T08:49:12.590Z,6.60
2018-04-27T08:51:40.326Z,5.57
2018-04-27T08:54:08.095Z,7.03
2018-04-27T08:56:35.834Z,4.47
2018-04-27T08:59:03.573Z,3.93
2018-04-27T09:01:31.381Z,7.30
2018-04-27T09:03:59.131Z,5.50
2018-04-27T09:06:26.900Z,7.10
2018-04-27T09:08:54.642Z,4.80
2018-04-27T09:11:22.406Z,6.23
2018-04-27T09:13:50.147Z,5.47
2018-04-27T09:16:17.906Z,8.60
2018-04-27T09:18:45.661Z,4.57
2018-04-27T09:21:13.394Z,5.83
2018-04-27T09:23:41.181Z,7.87
2018-04-27T09:26:08.951Z,9.17
2018-04-27T09:28:36.682Z,6.40
2018-04-27T09:31:04.397Z,5.33
2018-04-27T09:33:32.175Z,6.90
2018-04-27T09:35:59.901Z,5.53
2018-04-27T09:38:27.675Z,6.27
2018-04-27T09:40:55.433Z,7.07
2018-04-27T09:43:23.164Z,3.50
2018-04-27T09:45:50.920Z,5.97
2018-04-27T09:48:18.678Z,4.93
2018-04-27T09:50:46.488Z,6.27
2018-04-27T09:53:14.246Z,6.83
2018-04-27T09:55:42.011Z,3.10
2018-04-27T09:58:09.790Z,7.60
2018-04-27T10:00:37.522Z,4.80
2018-04-27T10:03:05.302Z,4.37
2018-04-27T10:05:33.038Z,7.90
2018-04-27T10:08:00.782Z,5.80
2018-04-27T10:10:28.530Z,6.50
2018-04-27T10:12:56.253Z,2.37
2018-04-27T10:15:23.989Z,5.83
2018-04-27T10:17:51.718Z,5.50
2018-04-27T10:20:19.496Z,5.73
2018-04-27T10:22:48.103Z,5.10
2018-04-27T10:25:15.919Z,3.83
2018-04-27T10:27:43.647Z,4.60
2018-04-27T10:30:11.435Z,3.50
2018-04-27T10:32:39.202Z,5.93
2018-04-27T10:35:06.929Z,1.80
2018-04-27T10:37:34.686Z,6.83
2018-04-27T10:40:02.418Z,3.67
2018-04-27T10:42:30.173Z,5.17
2018-04-27T10:44:58.002Z,5.60
2018-04-27T10:47:25.783Z,4.10
2018-04-27T10:49:53.551Z,3.80
2018-04-27T10:52:21.312Z,5.70
2018-04-27T10:54:49.078Z,5.10
2018-04-27T10:57:16.851Z,8.67
2018-04-27T10:59:44.613Z,8.30
2018-04-27T11:02:12.384Z,5.33
2018-04-27T11:04:40.162Z,3.20
2018-04-27T11:07:07.891Z,3.10
2018-04-27T11:09:35.682Z,6.37
2018-04-27T11:12:03.404Z,4.40
2018-04-27T11:14:31.162Z,7.90
2018-04-27T11:16:59.000Z,8.57
2018-04-27T11:19:26.653Z,6.23
2018-04-27T11:21:54.424Z,4.07
2018-04-27T11:24:22.177Z,3.70
2018-04-27T11:26:49.914Z,7.47
2018-04-27T11:29:17.669Z,5.93
2018-04-27T11:31:45.423Z,4.93
2018-04-27T11:34:13.210Z,5.23
2018-04-27T11:36:40.986Z,2.43
2018-04-27T11:39:08.750Z,3.67
2018-04-27T11:41:36.482Z,5.83
2018-04-27T11:44:04.238Z,4.20
2018-04-27T11:46:31.973Z,10.20
2018-04-27T11:48:59.762Z,5.60
2018-04-27T11:51:27.490Z,5.73
2018-04-27T11:53:55.260Z,5.03
2018-04-27T11:56:22.982Z,2.90
2018-04-27T11:58:50.750Z,3.50
2018-04-27T12:01:18.502Z,5.77
2018-04-27T12:03:46.252Z,2.50
2018-04-27T12:06:14.029Z,4.07
2018-04-27T12:08:41.846Z,4.87
2018-04-27T12:11:09.604Z,4.10
2018-04-27T12:13:37.317Z,7.83
2018-04-27T12:16:05.082Z,5.63
2018-04-27T12:18:32.810Z,6.90
2018-04-27T12:21:00.557Z,5.67
2018-04-27T12:23:28.278Z,4.60
2018-04-27T12:25:56.044Z,6.07
2018-04-27T12:28:23.806Z,6.73
2018-04-27T12:30:51.605Z,4.00
2018-04-27T12:33:19.339Z,3.20
2018-04-27T12:35:47.095Z,7.10
2018-04-27T12:38:14.837Z,6.43
2018-04-27T12:40:42.618Z,3.20
2018-04-27T12:43:10.401Z,5.00
2018-04-27T12:45:38.157Z,3.63
2018-04-27T12:48:05.893Z,4.30
2018-04-27T12:50:33.689Z,4.90
2018-04-27T12:53:01.411Z,3.73
2018-04-27T12:55:29.218Z,3.97
2018-04-27T12:57:56.985Z,4.60
2018-04-27T13:00:24.738Z,3.43
2018-04-27T13:02:52.481Z,3.20
2018-04-27T13:05:20.254Z,8.33
2018-04-27T13:07:48.011Z,5.43
2018-04-27T13:10:15.742Z,7.47
2018-04-27T13:12:43.505Z,3.80
2018-04-27T13:15:11.226Z,3.30
2018-04-27T13:17:39.109Z,2.70
2018-04-27T13:20:06.841Z,3.67
2018-04-27T13:22:34.609Z,2.87
2018-04-27T13:25:02.362Z,4.47
2018-04-27T13:27:30.142Z,5.00
2018-04-27T13:29:57.910Z,3.93
2018-04-27T13:32:25.645Z,5.67
2018-04-27T13:34:53.515Z,2.83
2018-04-27T13:37:21.226Z,5.30
2018-04-27T13:39:49.020Z,5.30
2018-04-27T13:42:16.767Z,3.70
2018-04-27T13:44:44.559Z,5.17
2018-04-27T13:47:12.298Z,5.10
2018-04-27T13:49:40.026Z,3.70
2018-04-27T13:52:07.819Z,4.23
2018-04-27T13:54:35.586Z,4.50
2018-04-27T13:57:03.364Z,4.07
2018-04-27T13:59:31.145Z,5.80
2018-04-27T14:01:58.873Z,4.83
2018-04-27T14:04:26.662Z,3.77
2018-04-27T14:06:54.386Z,8.73
2018-04-27T14:09:22.146Z,4.00
2018-04-27T14:11:49.955Z,11.23
2018-04-27T14:14:17.772Z,4.10
2018-04-27T14:16:45.533Z,4.30
2018-04-27T14:19:13.299Z,4.57
2018-04-27T14:21:41.030Z,5.60
2018-04-27T14:24:08.802Z,5.27
2018-04-27T14:26:36.542Z,3.80
2018-04-27T14:29:06.235Z,4.10
2018-04-27T14:31:34.011Z,6.43
2018-04-27T14:34:01.145Z,3.80
2018-04-27T14:36:27.106Z,5.23
2018-04-27T14:38:53.123Z,5.53
2018-04-27T14:41:19.087Z,5.00
2018-04-27T14:43:45.074Z,4.10
2018-04-27T14:46:11.802Z,6.80
2018-04-27T14:48:37.747Z,7.80
2018-04-27T14:51:03.687Z,6.13
2018-04-27T14:53:29.668Z,3.73
2018-04-27T14:55:55.611Z,5.13
2018-04-27T14:58:21.602Z,4.30
2018-04-27T15:00:48.287Z,5.17
2018-04-27T15:03:14.254Z,4.73
2018-04-27T15:05:40.230Z,4.33
2018-04-27T15:08:06.934Z,5.87
2018-04-27T15:10:32.929Z,7.13
2018-04-27T15:12:58.955Z,4.30
2018-04-27T15:15:25.075Z,6.43
2018-04-27T15:17:51.058Z,3.50
2018-04-27T15:20:17.007Z,6.47
2018-04-27T15:22:42.995Z,4.10
2018-04-27T15:25:09.678Z,7.10
2018-04-27T15:27:35.662Z,8.23
2018-04-27T15:30:01.622Z,5.07
2018-04-27T15:32:28.364Z,8.37
2018-04-27T15:34:54.328Z,4.23
2018-04-27T15:37:20.262Z,3.97
2018-04-27T15:39:46.191Z,4.60
2018-04-27T15:42:12.886Z,3.17
2018-04-27T15:44:38.851Z,4.73
2018-04-27T15:47:04.835Z,5.60
2018-04-27T15:49:30.794Z,5.67
2018-04-27T15:51:56.763Z,4.63
2018-04-27T15:54:22.696Z,2.50
2018-04-27T15:56:48.695Z,5.07
2018-04-27T15:59:14.650Z,7.07
2018-04-27T16:01:40.623Z,4.17
2018-04-27T16:04:07.306Z,2.60
2018-04-27T16:06:33.299Z,3.27
2018-04-27T16:08:59.303Z,3.57
2018-04-27T16:11:25.255Z,5.60
2018-04-27T16:13:55.267Z,2.97
2018-04-27T16:16:21.231Z,6.53
2018-04-27T16:18:47.202Z,4.60
2018-04-27T16:21:13.160Z,3.70
2018-04-27T16:23:39.111Z,4.67
2018-04-27T16:26:05.043Z,5.40
2018-04-27T16:28:30.998Z,3.63
2018-04-27T16:30:56.938Z,4.10
2018-04-27T16:33:22.975Z,5.37
2018-04-27T16:35:48.960Z,3.90
2018-04-27T16:38:15.076Z,2.90
2018-04-27T16:40:41.775Z,5.10
2018-04-27T16:43:07.723Z,8.03
2018-04-27T16:45:33.712Z,3.37
2018-04-27T16:47:59.654Z,6.43
2018-04-27T16:50:25.606Z,8.60
2018-04-27T16:52:51.558Z,4.07
2018-04-27T16:55:17.544Z,3.93
2018-04-27T16:57:44.346Z,4.33
2018-04-27T17:00:11.086Z,5.57
2018-04-27T17:02:37.019Z,4.30
2018-04-27T17:05:02.983Z,5.27
2018-04-27T17:07:28.946Z,2.53
2018-04-27T17:09:55.618Z,4.47
2018-04-27T17:12:21.599Z,4.27
2018-04-27T17:14:47.560Z,2.70
2018-04-27T17:17:13.582Z,4.07
2018-04-27T17:19:39.507Z,2.80
2018-04-27T17:22:05.454Z,4.13
2018-04-27T17:24:31.467Z,5.10
2018-04-27T17:26:57.524Z,8.77
2018-04-27T17:29:23.381Z,2.27
2018-04-27T17:31:50.099Z,4.33
2018-04-27T17:34:16.064Z,4.17
2018-04-27T17:36:42.139Z,2.73
2018-04-27T17:39:07.992Z,4.00
2018-04-27T17:41:33.927Z,3.07
2018-04-27T17:43:59.972Z,3.57
2018-04-27T17:46:25.948Z,3.63
2018-04-27T17:48:51.996Z,3.50
2018-04-27T17:51:17.979Z,12.80
2018-04-27T17:53:43.950Z,3.57
2018-04-27T17:56:09.995Z,5.67
2018-04-27T17:58:36.712Z,6.13
2018-04-27T18:01:02.658Z,3.20
2018-04-27T18:03:28.626Z,4.73
2018-04-27T18:05:55.299Z,3.70
2018-04-27T18:08:21.279Z,4.77
2018-04-27T18:10:47.267Z,4.10
2018-04-27T18:13:13.205Z,9.03
2018-04-27T18:15:39.183Z,3.20
2018-04-27T18:18:05.235Z,3.97
2018-04-27T18:20:31.192Z,4.00
2018-04-27T18:22:57.936Z,5.50
2018-04-27T18:25:23.843Z,4.73
2018-04-27T18:27:49.890Z,3.37
2018-04-27T18:30:16.587Z,3.40
2018-04-27T18:32:43.358Z,3.23
2018-04-27T18:35:09.210Z,3.60
2018-04-27T18:37:35.187Z,3.50
2018-04-27T18:40:01.919Z,6.47
2018-04-27T18:42:29.456Z,3.90
2018-04-27T18:44:55.339Z,3.70
2018-04-27T18:47:21.305Z,6.83
2018-04-27T18:49:48.055Z,5.07
2018-04-27T18:52:14.738Z,5.10
2018-04-27T18:54:40.717Z,5.80
2018-04-27T18:57:06.651Z,3.23
2018-04-27T18:59:32.622Z,3.90
2018-04-27T19:01:59.339Z,2.93
2018-04-27T19:04:25.382Z,5.63
2018-04-27T19:06:51.448Z,3.47
2018-04-27T19:09:18.149Z,4.70
2018-04-27T19:11:44.118Z,4.93
2018-04-27T19:14:10.051Z,3.40
2018-04-27T19:16:36.762Z,4.20
2018-04-27T19:19:02.695Z,5.90
2018-04-27T19:21:28.686Z,3.60
2018-04-27T19:23:55.378Z,3.97
2018-04-27T19:26:21.302Z,5.20
2018-04-27T19:28:47.273Z,5.13
2018-04-27T19:31:13.207Z,5.37
2018-04-27T19:33:39.170Z,7.80
2018-04-27T19:36:05.099Z,6.30
2018-04-27T19:38:31.074Z,7.47
2018-04-27T19:40:57.011Z,6.33
2018-04-27T19:43:22.998Z,5.23
2018-04-27T19:45:48.971Z,6.17
2018-04-27T19:48:15.670Z,4.80
2018-04-27T19:50:41.638Z,8.93
2018-04-27T19:53:08.318Z,4.47
2018-04-27T19:55:34.290Z,6.70
2018-04-27T19:58:00.312Z,4.20
2018-04-27T20:00:27.227Z,4.13
2018-04-27T20:02:53.899Z,7.13
2018-04-27T20:05:19.866Z,7.00
2018-04-27T20:07:45.859Z,4.97
2018-04-27T20:10:12.531Z,5.83
2018-04-27T20:12:38.463Z,7.23
2018-04-27T20:15:04.419Z,4.53
2018-04-27T20:17:36.290Z,6.70
2018-04-27T20:20:02.307Z,4.40
2018-04-27T20:22:28.311Z,7.20
2018-04-27T20:24:55.083Z,7.70
2018-04-27T20:27:21.020Z,5.83
2018-04-27T20:29:52.619Z,5.80
2018-04-27T20:32:18.591Z,6.03
2018-04-27T20:34:46.067Z,6.40
2018-04-27T20:37:12.070Z,7.00
2018-04-27T20:39:38.735Z,5.67
2018-04-27T20:42:04.699Z,5.50
2018-04-27T20:44:30.658Z,5.53
2018-04-27T20:46:56.626Z,5.07
2018-04-27T20:49:22.562Z,7.90
2018-04-27T20:51:49.490Z,5.73
2018-04-27T20:54:15.430Z,5.67
2018-04-27T20:56:45.234Z,5.63
2018-04-27T20:59:11.967Z,6.00
2018-04-27T21:01:37.911Z,6.93
2018-04-27T21:04:03.933Z,7.57
2018-04-27T21:06:30.610Z,6.70
2018-04-27T21:08:57.338Z,6.47
2018-04-27T21:11:25.392Z,7.90
2018-04-27T21:13:51.375Z,5.20
2018-04-27T21:16:18.091Z,10.30
2018-04-27T21:18:44.031Z,6.47
2018-04-27T21:21:11.733Z,4.90
2018-04-27T21:23:37.675Z,4.97
2018-04-27T21:26:04.352Z,7.43
2018-04-27T21:28:32.289Z,5.17
2018-04-27T21:31:00.749Z,4.20
2018-04-27T21:33:26.718Z,5.50
2018-04-27T21:35:52.737Z,4.50
2018-04-27T21:38:24.593Z,5.67
2018-04-27T21:40:50.567Z,5.50
2018-04-27T21:43:17.987Z,4.60
2018-04-27T21:45:43.919Z,4.20
2018-04-27T21:48:09.887Z,3.73
2018-04-27T21:50:35.815Z,4.43
2018-04-27T21:53:01.772Z,4.70
2018-04-27T21:55:28.494Z,6.47
2018-04-27T21:58:00.322Z,7.53
2018-04-27T22:00:27.159Z,4.47
2018-04-27T22:03:06.922Z,5.90
2018-04-27T22:05:48.930Z,5.23
2018-04-27T22:11:05.654Z,5.50
2018-04-27T22:13:31.590Z,5.30
2018-04-27T22:15:57.530Z,5.57
2018-04-27T22:18:23.513Z,6.33
2018-04-27T22:20:51.072Z,4.80
2018-04-27T22:23:17.000Z,6.47
2018-04-27T22:25:42.970Z,6.10
2018-04-27T22:28:09.691Z,6.73
2018-04-27T22:30:38.450Z,5.87
2018-04-27T22:36:21.348Z,5.40
2018-04-27T22:41:52.354Z,5.33
2018-04-27T22:44:18.292Z,5.43
2018-04-27T22:46:44.295Z,5.23
2018-04-27T22:49:10.232Z,5.43
2018-04-27T22:51:37.032Z,5.87
2018-04-27T22:54:03.948Z,5.40
2018-04-27T22:59:27.503Z,5.53
2018-04-27T23:02:01.800Z,7.80
2018-04-27T23:04:27.759Z,7.27
2018-04-27T23:06:53.704Z,5.60
2018-04-27T23:09:19.683Z,5.90
2018-04-27T23:11:45.663Z,8.17
2018-04-27T23:14:17.759Z,5.90
2018-04-27T23:16:47.607Z,6.37
2018-04-27T23:19:14.317Z,7.00
2018-04-27T23:21:46.571Z,8.43
2018-04-27T23:24:12.584Z,7.57
2018-04-27T23:26:39.271Z,6.27
2018-04-27T23:29:05.211Z,6.30
2018-04-27T23:31:31.222Z,5.80
2018-04-27T23:33:57.159Z,6.73
2018-04-27T23:36:23.141Z,7.67
2018-04-27T23:38:49.086Z,9.47
2018-04-27T23:41:15.046Z,7.13
2018-04-27T23:43:41.759Z,7.53
2018-04-27T23:46:07.736Z,6.47
2018-04-27T23:48:34.423Z,7.83
2018-04-27T23:51:00.449Z,7.70
2018-04-27T23:53:27.363Z,8.47
2018-04-27T23:55:53.335Z,7.40
2018-04-27T23:58:19.288Z,7.33
